ADDS METAR Data

Data at: 0503 UTC 20 Apr 2018

METAR for:KMLT (Millinocket Muni, ME, US)
Text:KMLT 200453Z AUTO 30005KT 10SM BKN023 BKN055 OVC100 02/00 A2972 RMK AO2 SLP070 T00170000 400830017
Temperature: 1.7°C ( 35°F)
Dewpoint: 0.0°C ( 32°F) [RH = 88%]
Pressure (altimeter):29.72 inches Hg (1006.5 mb) [Sea level pressure: 1007.0 mb]
Winds:from the WNW (300 degrees) at 6 MPH (5 knots; 2.6 m/s)
Visibility:10 or more sm (16+ km)
Ceiling:2300 feet AGL
Clouds: broken clouds at 2300 feet AGL, broken clouds at 5500 feet AGL, overcast cloud deck at 10000 feet AGL
QC Flag:automated observation with no human augmentation